createdAt,value
2024-01-06T00:03:17.040Z,100984.38
2024-01-06T00:09:20.028Z,100999.59
2024-01-06T00:15:21.627Z,101004.38
2024-01-06T00:21:23.222Z,101004.50
2024-01-06T00:27:26.188Z,101013.38
2024-01-06T00:33:27.897Z,101020.53
2024-01-06T00:39:29.533Z,101019.69
2024-01-06T00:45:32.463Z,101036.75
2024-01-06T00:51:36.091Z,101033.22
2024-01-06T00:57:39.002Z,101042.22
2024-01-06T01:03:41.991Z,101039.44
2024-01-06T01:09:43.694Z,101042.81
2024-01-06T01:15:45.455Z,101049.97
2024-01-06T01:21:48.501Z,101051.81
2024-01-06T01:27:50.113Z,101052.53
2024-01-06T01:33:51.864Z,101053.22
2024-01-06T01:39:54.881Z,101056.75
2024-01-06T01:45:57.086Z,101059.16
2024-01-06T01:51:58.764Z,101063.53
2024-01-06T01:58:01.731Z,101059.16
2024-01-06T02:04:04.560Z,101061.72
2024-01-06T02:10:07.855Z,101071.69
2024-01-06T02:16:10.797Z,101066.22
2024-01-06T02:22:13.664Z,101075.94
2024-01-06T02:28:15.274Z,101075.94
2024-01-06T02:34:16.961Z,101088.59
2024-01-06T02:40:20.232Z,101086.75
2024-01-06T02:46:21.786Z,101100.88
2024-01-06T02:52:23.336Z,101105.22
2024-01-06T02:58:26.311Z,101101.56
2024-01-06T03:04:27.971Z,101112.28
2024-01-06T03:10:29.549Z,101107.63
2024-01-06T03:16:32.441Z,101108.34
2024-01-06T03:22:34.140Z,101126.25
2024-01-06T03:28:35.696Z,101135.97
2024-01-06T03:34:38.681Z,101138.06
2024-01-06T03:40:40.307Z,101143.41
2024-01-06T03:46:41.964Z,101143.53
2024-01-06T03:52:44.966Z,101145.25
2024-01-06T03:58:46.657Z,101162.84
2024-01-06T04:04:48.426Z,101153.84
2024-01-06T04:10:51.405Z,101163.31
2024-01-06T04:16:53.136Z,101167.53
2024-01-06T04:22:54.896Z,101163.50
2024-01-06T04:28:58.053Z,101166.75
2024-01-06T04:34:59.683Z,101161.53
2024-01-06T04:41:01.677Z,101168.41
2024-01-06T04:47:05.075Z,101170.72
2024-01-06T04:53:06.648Z,101172.53
2024-01-06T04:59:08.235Z,101177.88
2024-01-06T05:05:11.177Z,101197.47
2024-01-06T05:11:12.780Z,101200.16
2024-01-06T05:17:14.369Z,101197.47
2024-01-06T05:23:17.206Z,101199.47
2024-01-06T05:29:18.776Z,101216.38
2024-01-06T05:35:20.358Z,101214.41
2024-01-06T05:41:23.252Z,101226.06
2024-01-06T05:47:24.849Z,101246.25
2024-01-06T05:53:26.409Z,101261.06
2024-01-06T05:59:29.315Z,101260.81
2024-01-06T06:05:30.901Z,101258.00
2024-01-06T06:11:32.445Z,101271.97
2024-01-06T06:17:35.493Z,101269.31
2024-01-06T06:23:37.136Z,101293.00
2024-01-06T06:29:38.802Z,101299.06
2024-01-06T06:35:41.723Z,101305.00
2024-01-06T06:41:43.251Z,101328.00
2024-01-06T06:47:44.934Z,101334.19
2024-01-06T06:53:50.501Z,101357.22
2024-01-06T06:59:52.764Z,101373.28
2024-01-06T07:05:54.417Z,101384.00
2024-01-06T07:11:57.420Z,101383.84
2024-01-06T07:17:59.093Z,101387.38
2024-01-06T07:24:01.188Z,101403.59
2024-01-06T07:30:04.988Z,101405.28
2024-01-06T07:36:07.321Z,101409.78
2024-01-06T07:42:08.872Z,101408.69
2024-01-06T07:48:11.922Z,101417.44
2024-01-06T07:54:13.653Z,101419.25
2024-01-06T08:00:15.676Z,101435.22
2024-01-06T08:06:18.844Z,101449.22
2024-01-06T08:12:20.513Z,101457.13
2024-01-06T08:18:22.232Z,101454.28
2024-01-06T08:24:25.445Z,101460.13
2024-01-06T08:30:27.257Z,101472.28
2024-01-06T08:36:29.009Z,101489.06
2024-01-06T08:42:31.945Z,101490.63
2024-01-06T08:48:35.855Z,101487.84
2024-01-06T08:54:37.818Z,101500.00
2024-01-06T09:00:40.802Z,101518.50
2024-01-06T09:06:42.417Z,101538.00
2024-01-06T09:12:44.079Z,101545.78
2024-01-06T09:18:47.149Z,101560.63
2024-01-06T09:24:48.780Z,101571.94
2024-01-06T09:30:50.552Z,101572.63
2024-01-06T09:36:53.655Z,101594.69
2024-01-06T09:42:55.523Z,101599.94
2024-01-06T09:48:57.636Z,101612.22
2024-01-06T09:55:06.404Z,101614.50
2024-01-06T10:01:08.168Z,101623.16
2024-01-06T10:07:09.948Z,101623.00
2024-01-06T10:13:13.001Z,101630.06
2024-01-06T10:19:14.732Z,101625.44
2024-01-06T10:25:16.483Z,101639.44
2024-01-06T10:31:19.977Z,101638.22
2024-01-06T10:37:21.669Z,101644.81
2024-01-06T10:43:26.459Z,101642.13
2024-01-06T10:49:31.044Z,101638.34
2024-01-06T10:55:33.674Z,101639.91
2024-01-06T11:01:35.879Z,101645.13
2024-01-06T11:07:40.899Z,101650.50
2024-01-06T11:13:42.495Z,101651.34
2024-01-06T11:19:45.402Z,101656.72
2024-01-06T11:25:48.374Z,101661.94
2024-01-06T11:32:20.839Z,101648.28
2024-01-06T11:38:24.008Z,101652.94
2024-01-06T11:44:29.270Z,101644.88
2024-01-06T11:50:34.132Z,101645.72
2024-01-06T11:56:35.671Z,101642.94
2024-01-06T12:02:38.573Z,101634.72
2024-01-06T12:08:40.110Z,101631.19
2024-01-06T12:14:42.551Z,101641.06
2024-01-06T12:20:45.562Z,101636.81
2024-01-06T12:26:47.695Z,101648.41
2024-01-06T12:32:50.998Z,101641.34
2024-01-06T12:38:53.951Z,101644.88
2024-01-06T12:44:55.488Z,101645.13
2024-01-06T12:50:57.054Z,101653.31
2024-01-06T12:56:59.948Z,101659.69
2024-01-06T13:03:01.641Z,101660.91
2024-01-06T13:09:03.531Z,101688.69
2024-01-06T13:15:07.991Z,101695.28
2024-01-06T13:21:09.617Z,101691.91
2024-01-06T13:27:11.163Z,101690.31
2024-01-06T13:33:14.146Z,101695.06
2024-01-06T13:39:15.773Z,101710.31
2024-01-06T13:45:18.223Z,101718.63
2024-01-06T13:51:21.324Z,101731.16
2024-01-06T13:57:22.927Z,101740.31
2024-01-06T14:03:24.663Z,101738.50
2024-01-06T14:09:27.606Z,101736.06
2024-01-06T14:15:29.242Z,101750.56
2024-01-06T14:21:30.846Z,101765.06
2024-01-06T14:27:33.993Z,101782.13
2024-01-06T14:33:35.686Z,101787.63
2024-01-06T14:39:37.278Z,101793.25
2024-01-06T14:45:40.164Z,101803.22
2024-01-06T14:51:41.770Z,101807.00
2024-01-06T14:57:43.351Z,101818.84
2024-01-06T15:03:46.364Z,101821.88
2024-01-06T15:09:48.039Z,101838.22
2024-01-06T15:15:50.744Z,101836.75
2024-01-06T15:21:54.775Z,101860.97
2024-01-06T15:27:56.353Z,101863.66
2024-01-06T15:33:58.110Z,101866.59
2024-01-06T15:40:01.553Z,101856.97
2024-01-06T15:46:03.485Z,101872.28
2024-01-06T15:52:05.687Z,101866.06
2024-01-06T15:58:08.622Z,101871.44
2024-01-06T16:04:10.370Z,101875.94
2024-01-06T16:10:12.057Z,101889.56
2024-01-06T16:16:14.946Z,101896.75
2024-01-06T16:22:18.277Z,101898.47
2024-01-06T16:28:20.049Z,101917.22
2024-01-06T16:34:23.062Z,101914.44
2024-01-06T16:40:24.807Z,101916.38
2024-01-06T16:46:26.385Z,101922.59
2024-01-06T16:52:29.510Z,101920.78
2024-01-06T16:58:31.154Z,101933.19
2024-01-06T17:04:32.848Z,101935.88
2024-01-06T17:10:36.078Z,101942.94
2024-01-06T17:16:37.751Z,101950.75
2024-01-06T17:22:39.442Z,101963.16
2024-01-06T17:28:42.410Z,101964.88
2024-01-06T17:34:44.314Z,101963.06
2024-01-06T17:40:46.089Z,101983.63
2024-01-06T17:46:50.049Z,101986.41
2024-01-06T17:52:51.647Z,101997.03
2024-01-06T17:58:53.558Z,102004.22
2024-01-06T18:04:56.705Z,101999.72
2024-01-06T18:10:58.360Z,102004.34
2024-01-06T18:17:00.442Z,102000.81
2024-01-06T18:23:03.488Z,102006.16
2024-01-06T18:29:05.029Z,102017.00
2024-01-06T18:35:07.150Z,102023.31
2024-01-06T18:41:10.023Z,102010.16
2024-01-06T18:47:11.566Z,102038.78
2024-01-06T18:53:13.170Z,102054.00
2024-01-06T18:59:16.045Z,102058.72
2024-01-06T19:05:18.067Z,102058.84
2024-01-06T19:11:19.687Z,102057.75
2024-01-06T19:17:22.713Z,102068.47
2024-01-06T19:23:24.594Z,102068.47
2024-01-06T19:29:26.174Z,102072.97
2024-01-06T19:35:29.090Z,102068.47
2024-01-06T19:41:30.695Z,102059.72
2024-01-06T19:47:32.291Z,102074.94
2024-01-06T19:53:35.583Z,102084.69
2024-01-06T19:59:37.112Z,102089.19
2024-01-06T20:05:38.728Z,102098.91
2024-01-06T20:11:41.625Z,102111.34
2024-01-06T20:17:43.189Z,102114.03
2024-01-06T20:23:44.806Z,102107.94
2024-01-06T20:29:47.688Z,102115.00
2024-01-06T20:35:49.261Z,102119.28
2024-01-06T20:41:51.010Z,102113.78
2024-01-06T20:47:54.143Z,102116.47
2024-01-06T20:53:55.741Z,102114.66
2024-01-06T20:59:57.389Z,102125.28
2024-01-06T21:06:00.335Z,102140.41
2024-01-06T21:12:02.295Z,102154.53
2024-01-06T21:18:04.197Z,102156.97
2024-01-06T21:24:07.986Z,102149.88
2024-01-06T21:30:10.127Z,102154.41
2024-01-06T21:36:11.740Z,102166.19
2024-01-06T21:42:14.655Z,102170.50
2024-01-06T21:48:16.289Z,102168.66
2024-01-06T21:54:18.002Z,102162.31
2024-01-06T22:00:21.063Z,102172.31
2024-01-06T22:06:22.714Z,102183.03
2024-01-06T22:12:24.406Z,102201.66
2024-01-06T22:18:27.415Z,102192.03
2024-01-06T22:24:29.158Z,102200.72
2024-01-06T22:30:31.217Z,102204.34
2024-01-06T22:36:34.183Z,102213.25
2024-01-06T22:42:36.046Z,102221.91
2024-01-06T22:48:37.827Z,102232.41
2024-01-06T22:54:40.991Z,102235.09
2024-01-06T23:00:42.639Z,102240.34
2024-01-06T23:06:44.318Z,102231.34
2024-01-06T23:12:47.408Z,102241.09
2024-01-06T23:18:49.162Z,102241.72
2024-01-06T23:24:50.748Z,102241.53
2024-01-06T23:30:53.902Z,102249.44
2024-01-06T23:36:55.551Z,102253.72
2024-01-06T23:42:57.127Z,102256.06
2024-01-06T23:49:00.308Z,102264.97
2024-01-06T23:55:02.117Z,102270.09
